Time;durP1;ratioP1;P1;durP2;ratioP2;P2;SDS_P1;SDS_P2;PMS_P1;PMS_P2;Temp;Humidity;BMP_temperature;BMP_pressure;BME280_temperature;BME280_humidity;BME280_pressure;Samples;Min_cycle;Max_cycle;Signal;HPM_P1;HPM_P2
2022/03/16 00:00:26;;;;;;;;;;;24.10;42.20;;;;;;1567567;74;738;-61
2022/03/16 00:02:28;;;;;;;;;;;24.10;42.20;;;;;;1568469;74;681;-62
2022/03/16 00:04:30;;;;;;;;;;;24.10;42.20;;;;;;1562528;74;737;-63
2022/03/16 00:06:31;;;;;;;;;;;24.00;42.10;;;;;;1580727;74;1933;-64
2022/03/16 00:08:33;;;;;;;;;;;24.00;42.10;;;;;;1553842;76;1167;-61
2022/03/16 00:10:35;;;;;;;;;;;24.00;42.10;;;;;;1568362;74;675;-62
2022/03/16 00:12:37;;;;;;;;;;;24.10;42.30;;;;;;1557612;74;815;-63
2022/03/16 00:14:39;;;;;;;;;;;24.00;42.10;;;;;;1563293;74;748;-63
2022/03/16 00:16:41;;;;;;;;;;;24.00;42.10;;;;;;1558829;74;733;-62
2022/03/16 00:18:43;;;;;;;;;;;24.00;42.10;;;;;;1568760;74;1161;-63
2022/03/16 00:20:45;;;;;;;;;;;24.00;42.20;;;;;;1553193;74;789;-62
2022/03/16 00:22:47;;;;;;;;;;;24.00;42.20;;;;;;1559715;74;755;-61
2022/03/16 00:24:49;;;;;;;;;;;24.00;42.20;;;;;;1553402;74;763;-63
2022/03/16 00:26:51;;;;;;;;;;;24.10;42.30;;;;;;1545458;74;1920;-64
2022/03/16 00:28:53;;;;;;;;;;;24.00;42.20;;;;;;1550417;74;1139;-63
2022/03/16 00:30:55;;;;;;;;;;;24.10;42.30;;;;;;1550011;74;1087;-63
2022/03/16 00:32:57;;;;;;;;;;;24.00;42.10;;;;;;1566223;74;777;-64
2022/03/16 00:34:58;;;;;;;;;;;24.10;42.30;;;;;;1567605;76;780;-63
2022/03/16 00:37:00;;;;;;;;;;;24.00;42.10;;;;;;1561455;76;742;-62
2022/03/16 00:39:03;;;;;;;;;;;24.00;42.20;;;;;;1559996;76;1172;-62
2022/03/16 00:41:04;;;;;;;;;;;24.00;42.20;;;;;;1548451;76;790;-62
2022/03/16 00:43:06;;;;;;;;;;;24.10;42.30;;;;;;1566099;75;812;-62
2022/03/16 00:45:09;;;;;;;;;;;24.10;42.30;;;;;;1549809;76;732;-62
2022/03/16 00:47:10;;;;;;;;;;;24.00;42.10;;;;;;1560641;75;1938;-62
2022/03/16 00:49:12;;;;;;;;;;;24.00;42.20;;;;;;1570460;74;1282;-62
2022/03/16 00:51:14;;;;;;;;;;;24.10;42.30;;;;;;1567622;74;828;-62
2022/03/16 00:53:16;;;;;;;;;;;24.10;42.20;;;;;;1567958;75;720;-63
2022/03/16 00:55:18;;;;;;;;;;;24.10;42.30;;;;;;1568235;74;782;-63
2022/03/16 00:57:23;;;;;;;;;;;24.10;42.30;;;;;;1567449;76;788;-63
2022/03/16 00:59:25;;;;;;;;;;;24.00;42.20;;;;;;1554327;76;1153;-63
2022/03/16 01:01:26;;;;;;;;;;;24.10;42.30;;;;;;1563510;76;699;-63
2022/03/16 01:03:29;;;;;;;;;;;24.10;42.30;;;;;;1563827;75;697;-63
2022/03/16 01:05:30;;;;;;;;;;;24.00;42.20;;;;;;1557061;76;736;-63
2022/03/16 01:07:32;;;;;;;;;;;24.00;42.20;;;;;;1563788;75;1944;-64
2022/03/16 01:09:34;;;;;;;;;;;24.00;42.20;;;;;;1560027;76;1067;-61
2022/03/16 01:11:37;;;;;;;;;;;24.00;42.20;;;;;;1563206;74;789;-62
2022/03/16 01:13:39;;;;;;;;;;;24.10;42.30;;;;;;1569145;74;824;-65
2022/03/16 01:15:41;;;;;;;;;;;24.10;42.40;;;;;;1560824;76;749;-63
2022/03/16 01:17:43;;;;;;;;;;;24.00;42.30;;;;;;1552760;74;1149;-64
2022/03/16 01:19:45;;;;;;;;;;;24.00;42.20;;;;;;1567370;74;728;-62
2022/03/16 01:21:47;;;;;;;;;;;24.10;42.40;;;;;;1568018;75;828;-62
2022/03/16 01:23:49;;;;;;;;;;;24.10;42.40;;;;;;1564454;75;847;-62
2022/03/16 01:25:50;;;;;;;;;;;24.00;42.30;;;;;;1572404;74;721;-64
2022/03/16 01:27:52;;;;;;;;;;;24.10;42.40;;;;;;1556775;74;1945;-63
2022/03/16 01:29:54;;;;;;;;;;;24.00;42.30;;;;;;1564762;74;668;-61
2022/03/16 01:31:56;;;;;;;;;;;24.00;42.30;;;;;;1580233;74;825;-63
2022/03/16 01:33:58;;;;;;;;;;;24.10;42.40;;;;;;1562324;74;760;-64
2022/03/16 01:36:00;;;;;;;;;;;24.10;42.40;;;;;;1575567;74;780;-62
2022/03/16 01:38:02;;;;;;;;;;;24.10;42.40;;;;;;1576552;74;1173;-63
2022/03/16 01:40:05;;;;;;;;;;;24.10;42.40;;;;;;1575009;74;719;-63
2022/03/16 01:42:07;;;;;;;;;;;24.00;42.30;;;;;;1561331;74;711;-63
2022/03/16 01:44:09;;;;;;;;;;;24.00;42.20;;;;;;1564179;74;774;-62
2022/03/16 01:46:11;;;;;;;;;;;23.90;42.30;;;;;;1580717;74;1930;-62
2022/03/16 01:48:13;;;;;;;;;;;24.00;42.30;;;;;;1573200;74;1166;-62
2022/03/16 01:50:15;;;;;;;;;;;23.90;42.30;;;;;;1567334;75;665;-63
2022/03/16 01:52:19;;;;;;;;;;;24.00;42.30;;;;;;1566844;74;744;-65
2022/03/16 01:54:21;;;;;;;;;;;24.00;42.30;;;;;;1552281;74;776;-64
2022/03/16 01:56:22;;;;;;;;;;;24.10;42.50;;;;;;1571870;74;917;-64
2022/03/16 01:58:24;;;;;;;;;;;24.00;42.30;;;;;;1559752;76;1161;-65
2022/03/16 02:00:26;;;;;;;;;;;24.00;42.30;;;;;;1553623;74;676;-65
2022/03/16 02:02:28;;;;;;;;;;;24.00;42.40;;;;;;1564589;74;874;-69
2022/03/16 02:04:30;;;;;;;;;;;23.90;42.50;;;;;;1565733;74;740;-67
2022/03/16 02:06:32;;;;;;;;;;;24.00;42.40;;;;;;1566710;74;1946;-67
2022/03/16 02:08:35;;;;;;;;;;;24.00;42.50;;;;;;1559283;74;1162;-65
2022/03/16 02:10:37;;;;;;;;;;;24.00;42.40;;;;;;1561292;74;825;-63
2022/03/16 02:12:42;;;;;;;;;;;24.00;42.50;;;;;;1562712;74;787;-65
2022/03/16 02:14:44;;;;;;;;;;;23.90;42.50;;;;;;1559445;74;718;-66
2022/03/16 02:16:46;;;;;;;;;;;23.90;42.50;;;;;;1559530;74;789;-64
2022/03/16 02:18:49;;;;;;;;;;;24.00;42.60;;;;;;1559277;74;1090;-67
2022/03/16 02:20:51;;;;;;;;;;;23.90;42.60;;;;;;1558034;74;747;-65
2022/03/16 02:22:53;;;;;;;;;;;24.00;42.60;;;;;;1561023;74;782;-67
2022/03/16 02:24:55;;;;;;;;;;;23.90;42.60;;;;;;1560623;74;820;-66
2022/03/16 02:26:58;;;;;;;;;;;24.00;42.60;;;;;;1568895;74;1932;-66
2022/03/16 02:28:59;;;;;;;;;;;23.90;42.60;;;;;;1567252;74;1154;-64
2022/03/16 02:31:01;;;;;;;;;;;23.90;42.60;;;;;;1565224;74;851;-67
2022/03/16 02:33:03;;;;;;;;;;;24.00;42.60;;;;;;1562256;74;760;-65
2022/03/16 02:35:05;;;;;;;;;;;23.90;42.60;;;;;;1561812;74;763;-65
2022/03/16 02:37:08;;;;;;;;;;;23.90;42.60;;;;;;1568676;74;752;-66
2022/03/16 02:39:09;;;;;;;;;;;23.90;42.60;;;;;;1567603;74;1185;-65
2022/03/16 02:41:11;;;;;;;;;;;23.90;42.70;;;;;;1564464;74;743;-67
2022/03/16 02:43:13;;;;;;;;;;;23.90;42.60;;;;;;1564074;74;721;-65
2022/03/16 02:45:15;;;;;;;;;;;23.90;42.60;;;;;;1562086;74;800;-65
2022/03/16 02:47:17;;;;;;;;;;;23.90;42.70;;;;;;1567442;74;1935;-65
2022/03/16 02:49:19;;;;;;;;;;;23.90;42.70;;;;;;1565247;74;1156;-65
2022/03/16 02:51:21;;;;;;;;;;;23.90;42.70;;;;;;1565345;74;786;-66
2022/03/16 02:53:22;;;;;;;;;;;23.90;42.70;;;;;;1564280;74;785;-64
2022/03/16 02:55:24;;;;;;;;;;;23.90;42.80;;;;;;1567118;74;798;-65
2022/03/16 02:57:27;;;;;;;;;;;23.90;42.80;;;;;;1566704;74;685;-64
2022/03/16 02:59:30;;;;;;;;;;;23.90;42.80;;;;;;1571894;74;1126;-66
2022/03/16 03:01:31;;;;;;;;;;;23.90;42.80;;;;;;1565831;74;709;-65
2022/03/16 03:03:33;;;;;;;;;;;23.90;42.80;;;;;;1563378;74;752;-66
2022/03/16 03:05:35;;;;;;;;;;;23.80;42.70;;;;;;1565169;74;800;-65
2022/03/16 03:07:37;;;;;;;;;;;23.90;42.80;;;;;;1573806;74;1924;-65
2022/03/16 03:09:39;;;;;;;;;;;23.90;42.80;;;;;;1566108;74;1095;-65
2022/03/16 03:11:41;;;;;;;;;;;23.90;42.90;;;;;;1567155;74;746;-66
2022/03/16 03:13:43;;;;;;;;;;;23.90;42.80;;;;;;1569934;74;725;-66
2022/03/16 03:15:45;;;;;;;;;;;23.90;42.80;;;;;;1572552;74;787;-65
2022/03/16 03:17:46;;;;;;;;;;;23.90;42.90;;;;;;1574098;73;1151;-65
2022/03/16 03:19:48;;;;;;;;;;;23.90;42.80;;;;;;1571016;74;726;-66
2022/03/16 03:21:50;;;;;;;;;;;23.90;42.80;;;;;;1579697;74;738;-64
2022/03/16 03:23:52;;;;;;;;;;;23.90;42.80;;;;;;1574950;74;795;-65
2022/03/16 03:25:54;;;;;;;;;;;23.90;42.80;;;;;;1583449;74;811;-65
2022/03/16 03:27:56;;;;;;;;;;;23.90;42.80;;;;;;1581465;73;1950;-64
2022/03/16 03:29:58;;;;;;;;;;;23.90;42.80;;;;;;1578525;74;796;-65
2022/03/16 03:32:00;;;;;;;;;;;24.00;42.80;;;;;;1569925;72;3103;-68
2022/03/16 03:34:02;;;;;;;;;;;24.00;42.70;;;;;;1519025;77;718;-66
2022/03/16 03:36:04;;;;;;;;;;;24.00;42.70;;;;;;1520126;76;972;-66
2022/03/16 03:38:06;;;;;;;;;;;24.10;42.70;;;;;;1520519;77;696;-67
2022/03/16 03:40:08;;;;;;;;;;;24.20;42.60;;;;;;1525473;77;686;-66
2022/03/16 03:42:10;;;;;;;;;;;24.20;42.50;;;;;;1516732;77;1230;-66
2022/03/16 03:44:12;;;;;;;;;;;24.30;42.60;;;;;;1525166;77;846;-67
2022/03/16 03:46:13;;;;;;;;;;;24.30;42.30;;;;;;1528534;77;893;-65
2022/03/16 03:48:15;;;;;;;;;;;24.40;42.20;;;;;;1531689;77;1965;-65
2022/03/16 03:50:17;;;;;;;;;;;24.40;42.20;;;;;;1528313;77;793;-66
2022/03/16 03:52:19;;;;;;;;;;;24.40;42.30;;;;;;1525879;75;1163;-64
2022/03/16 03:54:21;;;;;;;;;;;24.40;42.30;;;;;;1523475;77;755;-66
2022/03/16 03:56:23;;;;;;;;;;;24.40;42.40;;;;;;1522994;77;760;-66
2022/03/16 03:58:25;;;;;;;;;;;24.40;42.60;;;;;;1524585;77;721;-66
2022/03/16 04:00:26;;;;;;;;;;;24.30;42.70;;;;;;1524626;77;720;-68
2022/03/16 04:02:28;;;;;;;;;;;24.20;42.90;;;;;;1527913;75;1148;-66
2022/03/16 04:04:30;;;;;;;;;;;24.20;43.20;;;;;;1521470;77;709;-66
2022/03/16 04:06:32;;;;;;;;;;;24.10;43.40;;;;;;1527951;77;803;-67
2022/03/16 04:08:34;;;;;;;;;;;24.10;43.40;;;;;;1522456;77;1923;-69
2022/03/16 04:10:38;;;;;;;;;;;24.00;43.50;;;;;;1524623;77;666;-66
2022/03/16 04:12:40;;;;;;;;;;;24.10;43.80;;;;;;1519882;77;1651;-68
2022/03/16 04:14:41;;;;;;;;;;;24.00;43.80;;;;;;1520177;77;809;-68
2022/03/16 04:16:43;;;;;;;;;;;24.10;43.90;;;;;;1521301;77;735;-68
2022/03/16 04:18:45;;;;;;;;;;;24.00;43.90;;;;;;1523555;77;823;-66
2022/03/16 04:20:47;;;;;;;;;;;24.00;44.10;;;;;;1524403;77;738;-66
2022/03/16 04:22:49;;;;;;;;;;;24.00;44.00;;;;;;1495235;78;1173;-66
2022/03/16 04:24:51;;;;;;;;;;;24.10;44.20;;;;;;1507162;77;745;-66
2022/03/16 04:26:53;;;;;;;;;;;24.00;44.00;;;;;;1505637;77;887;-69
2022/03/16 04:28:55;;;;;;;;;;;24.00;44.00;;;;;;1500865;77;1910;-65
2022/03/16 04:30:57;;;;;;;;;;;24.10;44.20;;;;;;1484070;78;1142;-66
2022/03/16 04:32:59;;;;;;;;;;;24.00;44.00;;;;;;1507484;77;1079;-65
2022/03/16 04:35:01;;;;;;;;;;;24.00;44.00;;;;;;1532349;77;788;-67
2022/03/16 04:37:03;;;;;;;;;;;24.00;44.00;;;;;;1518558;77;777;-65
2022/03/16 04:39:04;;;;;;;;;;;24.20;44.10;;;;;;1515380;77;768;-66
2022/03/16 04:41:06;;;;;;;;;;;24.20;44.10;;;;;;1512753;77;788;-68
2022/03/16 04:43:08;;;;;;;;;;;24.10;44.10;;;;;;1517234;77;1130;-67
2022/03/16 04:45:10;;;;;;;;;;;24.20;44.20;;;;;;1520782;77;721;-66
2022/03/16 04:47:12;;;;;;;;;;;24.10;44.10;;;;;;1516805;77;809;-66
2022/03/16 04:49:14;;;;;;;;;;;24.20;44.20;;;;;;1519396;77;1893;-67
2022/03/16 04:51:16;;;;;;;;;;;24.20;44.10;;;;;;1525099;77;767;-68
2022/03/16 04:53:18;;;;;;;;;;;24.10;44.10;;;;;;1518433;77;1115;-69
2022/03/16 04:55:19;;;;;;;;;;;24.10;44.10;;;;;;1519298;77;750;-68
2022/03/16 04:57:21;;;;;;;;;;;24.20;44.10;;;;;;1513787;77;732;-66
2022/03/16 04:59:23;;;;;;;;;;;24.10;44.10;;;;;;1518312;77;722;-66
2022/03/16 05:01:25;;;;;;;;;;;24.10;44.20;;;;;;1520679;76;1117;-67
2022/03/16 05:03:27;;;;;;;;;;;24.10;44.20;;;;;;1516426;77;731;-68
2022/03/16 05:05:29;;;;;;;;;;;24.20;44.20;;;;;;1517636;77;783;-67
2022/03/16 05:07:31;;;;;;;;;;;24.20;44.10;;;;;;1518443;77;1887;-67
2022/03/16 05:09:32;;;;;;;;;;;24.10;44.10;;;;;;1521611;77;795;-68
2022/03/16 05:11:35;;;;;;;;;;;24.20;44.20;;;;;;1516630;77;1142;-68
2022/03/16 05:13:37;;;;;;;;;;;24.20;44.10;;;;;;1516224;77;685;-67
2022/03/16 05:15:39;;;;;;;;;;;24.20;44.40;;;;;;1514553;77;797;-69
2022/03/16 05:17:41;;;;;;;;;;;24.20;44.30;;;;;;1518633;77;792;-68
2022/03/16 05:19:43;;;;;;;;;;;24.20;44.30;;;;;;1516396;77;736;-67
2022/03/16 05:21:45;;;;;;;;;;;24.20;44.30;;;;;;1514053;77;1186;-67
2022/03/16 05:23:47;;;;;;;;;;;24.20;44.20;;;;;;1517846;77;789;-69
2022/03/16 05:25:49;;;;;;;;;;;24.20;44.20;;;;;;1527421;77;881;-68
2022/03/16 05:27:51;;;;;;;;;;;24.20;44.20;;;;;;1529576;77;1926;-69
2022/03/16 05:29:53;;;;;;;;;;;24.20;44.20;;;;;;1516960;77;731;-69
2022/03/16 05:31:55;;;;;;;;;;;24.20;44.20;;;;;;1523263;77;1160;-68
2022/03/16 05:33:56;;;;;;;;;;;24.20;44.50;;;;;;1529922;77;819;-68
2022/03/16 05:35:58;;;;;;;;;;;24.20;44.50;;;;;;1535799;77;815;-69
2022/03/16 05:38:02;;;;;;;;;;;24.20;44.50;;;;;;1519909;77;733;-69
2022/03/16 05:40:05;;;;;;;;;;;24.20;44.50;;;;;;1532609;77;2352;-67
2022/03/16 05:42:08;;;;;;;;;;;24.20;44.40;;;;;;1521529;77;1177;-68
2022/03/16 05:44:10;;;;;;;;;;;24.20;44.40;;;;;;1525770;77;777;-68
2022/03/16 05:46:12;;;;;;;;;;;24.20;44.40;;;;;;1523852;77;706;-68
2022/03/16 05:48:14;;;;;;;;;;;24.20;44.50;;;;;;1510575;77;1941;-66
2022/03/16 05:50:15;;;;;;;;;;;24.20;44.60;;;;;;1513051;77;666;-64
2022/03/16 05:52:21;;;;;;;;;;;24.30;44.80;;;;;;1510089;77;1134;-63
2022/03/16 05:54:21;;;;;;;;;;;24.20;44.90;;;;;;1525391;77;1671;-62
2022/03/16 05:56:23;;;;;;;;;;;24.20;44.90;;;;;;1523679;77;947;-62
2022/03/16 05:58:25;;;;;;;;;;;24.30;44.50;;;;;;1539713;77;727;-63
2022/03/16 06:00:27;;;;;;;;;;;24.50;43.90;;;;;;1533577;77;756;-62
2022/03/16 06:02:29;;;;;;;;;;;24.70;43.50;;;;;;1536576;76;1148;-62
2022/03/16 06:04:31;;;;;;;;;;;24.80;43.10;;;;;;1526253;77;739;-62
2022/03/16 06:06:33;;;;;;;;;;;24.70;42.80;;;;;;1513955;77;731;-63
2022/03/16 06:08:35;;;;;;;;;;;24.80;42.60;;;;;;1513400;77;1943;-63
2022/03/16 06:10:36;;;;;;;;;;;24.80;42.40;;;;;;1530440;77;755;-64
2022/03/16 06:12:51;;;;;;;;;;;24.80;42.30;;;;;;1524570;77;1124;-63
2022/03/16 06:14:53;;;;;;;;;;;24.80;42.20;;;;;;1506308;77;748;-62
2022/03/16 06:16:55;;;;;;;;;;;24.80;42.20;;;;;;1528644;77;765;-62
2022/03/16 06:18:57;;;;;;;;;;;24.80;42.10;;;;;;1532340;77;754;-63
2022/03/16 06:20:59;;;;;;;;;;;24.80;42.10;;;;;;1528653;77;823;-62
2022/03/16 06:23:01;;;;;;;;;;;24.80;42.00;;;;;;1535329;76;1145;-63
2022/03/16 06:25:03;;;;;;;;;;;24.80;42.00;;;;;;1524417;77;794;-62
2022/03/16 06:27:05;;;;;;;;;;;24.80;41.90;;;;;;1517601;77;758;-62
2022/03/16 06:29:07;;;;;;;;;;;24.90;41.80;;;;;;1527323;77;1928;-62
2022/03/16 06:31:09;;;;;;;;;;;24.90;41.70;;;;;;1530431;77;772;-63
2022/03/16 06:33:11;;;;;;;;;;;24.90;41.60;;;;;;1505753;76;1121;-62
2022/03/16 06:35:12;;;;;;;;;;;25.00;41.50;;;;;;1525718;77;776;-65
2022/03/16 06:37:14;;;;;;;;;;;25.00;41.40;;;;;;1528041;77;736;-66
2022/03/16 06:39:16;;;;;;;;;;;24.90;41.60;;;;;;1525836;77;794;-67
2022/03/16 06:41:18;;;;;;;;;;;24.90;41.80;;;;;;1523023;77;719;-66
2022/03/16 06:43:21;;;;;;;;;;;24.90;42.00;;;;;;1531149;77;1126;-65
2022/03/16 06:45:23;;;;;;;;;;;24.90;41.90;;;;;;1526470;77;917;-65
2022/03/16 06:47:25;;;;;;;;;;;24.90;42.10;;;;;;1535894;77;793;-64
2022/03/16 06:49:27;;;;;;;;;;;25.00;41.90;;;;;;1531952;77;1940;-65
2022/03/16 06:51:28;;;;;;;;;;;24.90;41.70;;;;;;1531420;76;1086;-63
2022/03/16 06:53:30;;;;;;;;;;;24.90;41.70;;;;;;1524986;77;727;-63
2022/03/16 06:55:32;;;;;;;;;;;24.90;41.60;;;;;;1521865;77;1250;-63
2022/03/16 06:57:34;;;;;;;;;;;25.00;41.50;;;;;;1531163;77;769;-62
2022/03/16 06:59:36;;;;;;;;;;;25.00;41.40;;;;;;1535572;77;727;-62
2022/03/16 07:01:38;;;;;;;;;;;25.00;41.30;;;;;;1538671;76;1133;-64
2022/03/16 07:03:40;;;;;;;;;;;25.00;41.30;;;;;;1509778;77;793;-62
2022/03/16 07:05:42;;;;;;;;;;;25.10;41.10;;;;;;1533859;77;716;-63
2022/03/16 07:07:44;;;;;;;;;;;25.10;41.00;;;;;;1538216;77;721;-65
2022/03/16 07:09:46;;;;;;;;;;;25.20;40.80;;;;;;1530769;77;1959;-63
2022/03/16 07:11:48;;;;;;;;;;;25.20;40.80;;;;;;1509860;77;1151;-63
2022/03/16 07:16:09;;;;;;;;;;;25.20;40.70;;;;;;1527546;77;1656;-63
2022/03/16 07:18:11;;;;;;;;;;;25.20;40.60;;;;;;1523460;77;866;-64
2022/03/16 07:20:13;;;;;;;;;;;25.20;40.50;;;;;;1533142;77;776;-62
2022/03/16 07:22:15;;;;;;;;;;;25.20;40.60;;;;;;1526823;76;1178;-64
2022/03/16 07:24:17;;;;;;;;;;;25.20;40.50;;;;;;1520451;77;796;-63
2022/03/16 07:26:19;;;;;;;;;;;25.20;40.50;;;;;;1537549;77;673;-63
2022/03/16 07:28:21;;;;;;;;;;;25.20;40.50;;;;;;1520821;77;1937;-62
2022/03/16 07:30:22;;;;;;;;;;;25.20;40.40;;;;;;1524129;77;719;-62
2022/03/16 07:32:24;;;;;;;;;;;25.20;40.40;;;;;;1520464;77;1150;-62
2022/03/16 07:34:26;;;;;;;;;;;25.20;40.40;;;;;;1515139;77;798;-63
2022/03/16 07:36:28;;;;;;;;;;;25.20;40.40;;;;;;1521538;77;705;-63
2022/03/16 07:38:30;;;;;;;;;;;25.10;40.40;;;;;;1517568;77;738;-64
2022/03/16 07:40:33;;;;;;;;;;;25.30;40.40;;;;;;1514346;77;816;-62
2022/03/16 07:42:36;;;;;;;;;;;25.20;40.30;;;;;;1529467;76;1160;-62
2022/03/16 07:44:38;;;;;;;;;;;25.10;40.30;;;;;;1524432;77;1419;-65
2022/03/16 07:46:40;;;;;;;;;;;25.20;40.30;;;;;;1530075;77;723;-62
2022/03/16 07:48:44;;;;;;;;;;;25.10;40.30;;;;;;1535827;77;1952;-63
2022/03/16 07:50:46;;;;;;;;;;;25.10;40.30;;;;;;1535442;77;1657;-64
2022/03/16 07:52:47;;;;;;;;;;;25.00;40.40;;;;;;1530390;76;1114;-64
2022/03/16 07:54:49;;;;;;;;;;;25.00;40.50;;;;;;1520428;77;722;-64
2022/03/16 07:56:52;;;;;;;;;;;24.90;40.70;;;;;;1526382;77;737;-64
2022/03/16 07:58:56;;;;;;;;;;;24.80;40.70;;;;;;1516600;77;844;-63
2022/03/16 08:00:58;;;;;;;;;;;24.80;40.80;;;;;;1521465;77;819;-64
2022/03/16 08:03:03;;;;;;;;;;;24.80;40.90;;;;;;1521907;77;1065;-63
2022/03/16 08:05:05;;;;;;;;;;;24.70;41.10;;;;;;1512670;77;697;-64
2022/03/16 08:07:09;;;;;;;;;;;24.60;41.10;;;;;;1525876;77;710;-65
2022/03/16 08:09:11;;;;;;;;;;;24.60;41.10;;;;;;1527485;77;1923;-63
2022/03/16 08:11:13;;;;;;;;;;;24.50;41.30;;;;;;1517234;77;775;-63
2022/03/16 08:13:14;;;;;;;;;;;24.60;41.30;;;;;;1523840;77;1111;-64
2022/03/16 08:15:16;;;;;;;;;;;24.50;41.40;;;;;;1519882;77;732;-64
2022/03/16 08:17:18;;;;;;;;;;;24.50;41.50;;;;;;1526435;77;806;-62
2022/03/16 08:19:21;;;;;;;;;;;24.50;41.50;;;;;;1533962;77;808;-63
2022/03/16 08:21:23;;;;;;;;;;;24.50;41.50;;;;;;1528676;77;824;-64
2022/03/16 08:23:24;;;;;;;;;;;24.50;41.50;;;;;;1530813;77;737;-63
2022/03/16 08:25:27;;;;;;;;;;;24.40;41.50;;;;;;1522207;77;765;-64
2022/03/16 08:27:28;;;;;;;;;;;24.40;41.50;;;;;;1522722;77;748;-63
2022/03/16 08:29:30;;;;;;;;;;;24.40;41.60;;;;;;1509055;77;1935;-63
2022/03/16 08:31:32;;;;;;;;;;;24.40;41.60;;;;;;1523227;76;1212;-64
2022/03/16 08:33:34;;;;;;;;;;;24.40;41.50;;;;;;1519226;77;764;-65
2022/03/16 08:35:36;;;;;;;;;;;24.50;41.70;;;;;;1528035;77;797;-64
2022/03/16 08:37:38;;;;;;;;;;;24.50;41.60;;;;;;1535866;77;663;-65
2022/03/16 08:39:40;;;;;;;;;;;24.50;41.30;;;;;;1526653;77;712;-63
2022/03/16 08:41:42;;;;;;;;;;;24.60;41.30;;;;;;1530275;77;1159;-64
2022/03/16 08:43:44;;;;;;;;;;;24.60;41.30;;;;;;1525712;77;716;-65
2022/03/16 08:45:47;;;;;;;;;;;24.50;41.40;;;;;;1536201;77;797;-65
2022/03/16 08:47:49;;;;;;;;;;;24.50;41.50;;;;;;1513810;77;728;-64
2022/03/16 08:49:53;;;;;;;;;;;24.50;41.50;;;;;;1518757;77;1920;-65
2022/03/16 08:51:54;;;;;;;;;;;24.50;41.60;;;;;;1522909;77;1978;-65
2022/03/16 08:53:56;;;;;;;;;;;24.50;41.60;;;;;;1526768;77;796;-64
2022/03/16 08:56:00;;;;;;;;;;;24.50;41.60;;;;;;1527479;77;684;-64
2022/03/16 08:58:02;;;;;;;;;;;24.50;41.60;;;;;;1530657;77;772;-65
2022/03/16 09:00:04;;;;;;;;;;;24.50;41.70;;;;;;1531462;77;765;-66
2022/03/16 09:02:06;;;;;;;;;;;24.50;41.70;;;;;;1530140;76;1144;-67
2022/03/16 09:04:08;;;;;;;;;;;24.50;41.70;;;;;;1529432;77;686;-66
2022/03/16 09:06:10;;;;;;;;;;;24.50;41.70;;;;;;1529588;77;786;-66
2022/03/16 09:08:12;;;;;;;;;;;24.50;41.70;;;;;;1525809;77;864;-66
2022/03/16 09:10:14;;;;;;;;;;;24.50;41.80;;;;;;1520014;77;1927;-67
2022/03/16 09:12:16;;;;;;;;;;;24.50;41.80;;;;;;1512220;77;1091;-65
2022/03/16 09:14:17;;;;;;;;;;;24.50;41.60;;;;;;1534402;77;716;-66
2022/03/16 09:16:19;;;;;;;;;;;24.60;41.50;;;;;;1524610;77;730;-66
2022/03/16 09:18:22;;;;;;;;;;;24.70;41.50;;;;;;1514450;77;726;-66
2022/03/16 09:20:24;;;;;;;;;;;24.70;41.30;;;;;;1521521;77;810;-65
2022/03/16 09:22:26;;;;;;;;;;;24.70;41.30;;;;;;1528291;76;1156;-66
2022/03/16 09:24:28;;;;;;;;;;;24.60;41.10;;;;;;1530023;77;713;-65
2022/03/16 09:26:30;;;;;;;;;;;24.70;41.30;;;;;;1530500;77;712;-66
2022/03/16 09:28:32;;;;;;;;;;;24.60;41.20;;;;;;1525959;77;876;-66
2022/03/16 09:30:33;;;;;;;;;;;24.60;41.10;;;;;;1526192;77;1911;-66
2022/03/16 09:32:57;;;;;;;;;;;24.60;41.10;;;;;;1534571;76;1180;-64
2022/03/16 09:34:59;;;;;;;;;;;24.60;41.20;;;;;;1517979;78;1265;-62
2022/03/16 09:37:01;;;;;;;;;;;24.70;41.30;;;;;;1520922;77;756;-64
2022/03/16 09:39:02;;;;;;;;;;;24.60;41.20;;;;;;1518637;77;761;-65
2022/03/16 09:41:05;;;;;;;;;;;24.50;41.30;;;;;;1518181;77;787;-64
2022/03/16 09:43:09;;;;;;;;;;;24.50;41.30;;;;;;1503923;78;1168;-64
2022/03/16 09:45:12;;;;;;;;;;;24.50;41.40;;;;;;1496402;78;797;-64
2022/03/16 09:47:14;;;;;;;;;;;24.50;41.40;;;;;;1493535;79;702;-65
2022/03/16 09:49:17;;;;;;;;;;;24.50;41.50;;;;;;1493333;78;1932;-64
2022/03/16 09:51:19;;;;;;;;;;;24.40;41.50;;;;;;1495752;78;734;-64
2022/03/16 09:53:22;;;;;;;;;;;24.40;41.50;;;;;;1493385;78;1139;-65
2022/03/16 09:55:24;;;;;;;;;;;24.50;41.50;;;;;;1492789;79;734;-65
2022/03/16 09:57:27;;;;;;;;;;;24.50;41.60;;;;;;1493438;79;759;-63
2022/03/16 09:59:28;;;;;;;;;;;24.50;41.50;;;;;;1493411;79;735;-64
2022/03/16 10:01:32;;;;;;;;;;;24.50;41.50;;;;;;1496354;78;712;-64
2022/03/16 10:03:35;;;;;;;;;;;24.50;41.50;;;;;;1491951;78;1127;-64
2022/03/16 10:05:38;;;;;;;;;;;24.50;41.50;;;;;;1496156;78;701;-64
2022/03/16 10:07:40;;;;;;;;;;;24.50;41.40;;;;;;1493766;78;827;-63
2022/03/16 10:14:24;;;;;;;;;;;24.50;41.30;;;;;;1496426;78;764;-65
2022/03/16 10:17:43;;;;;;;;;;;24.50;41.30;;;;;;1499554;78;741;-66
2022/03/16 10:18:29;;;;;;;;;;;24.50;41.30;;;;;;1495190;78;1488;-65
2022/03/16 10:20:35;;;;;;;;;;;24.50;41.40;;;;;;1460955;80;1230;-64
2022/03/16 10:22:41;;;;;;;;;;;24.50;41.50;;;;;;1492224;78;1179;-64
2022/03/16 10:24:42;;;;;;;;;;;24.50;41.50;;;;;;1492829;78;1339;-65
2022/03/16 10:26:45;;;;;;;;;;;24.50;41.50;;;;;;1494780;78;805;-64
2022/03/16 10:28:47;;;;;;;;;;;24.40;41.50;;;;;;1493479;78;1658;-64
2022/03/16 10:30:52;;;;;;;;;;;24.40;41.50;;;;;;1493457;78;1951;-64
2022/03/16 10:32:53;;;;;;;;;;;24.50;41.60;;;;;;1493352;78;1666;-64
2022/03/16 10:34:55;;;;;;;;;;;24.40;41.50;;;;;;1495700;78;793;-65
2022/03/16 10:37:01;;;;;;;;;;;24.40;41.50;;;;;;1499734;78;848;-63
2022/03/16 10:39:03;;;;;;;;;;;24.50;41.60;;;;;;1493576;79;778;-62
2022/03/16 10:46:34;;;;;;;;;;;24.50;41.50;;;;;;1489950;78;781;-65
2022/03/16 10:48:01;;;;;;;;;;;24.60;41.30;;;;;;1407856;82;932;-63
2022/03/16 10:50:10;;;;;;;;;;;24.50;41.30;;;;;;1410864;82;1934;-65
2022/03/16 10:52:15;;;;;;;;;;;24.50;41.30;;;;;;1411043;82;1114;-63
2022/03/16 10:54:16;;;;;;;;;;;24.50;41.30;;;;;;1481336;78;1638;-64
2022/03/16 10:56:18;;;;;;;;;;;24.50;41.40;;;;;;1490527;78;770;-64
2022/03/16 10:58:19;;;;;;;;;;;24.50;41.30;;;;;;1500173;78;878;-64
2022/03/16 11:00:21;;;;;;;;;;;24.50;41.30;;;;;;1506369;78;786;-64
2022/03/16 11:02:24;;;;;;;;;;;24.50;41.40;;;;;;1483706;78;1124;-65
2022/03/16 11:04:26;;;;;;;;;;;24.50;41.50;;;;;;1497064;78;767;-64
2022/03/16 11:06:28;;;;;;;;;;;24.40;41.30;;;;;;1495961;78;740;-66
2022/03/16 11:08:35;;;;;;;;;;;24.50;41.50;;;;;;1503414;78;827;-63
2022/03/16 11:10:35;;;;;;;;;;;24.40;41.40;;;;;;1499326;78;1916;-64
2022/03/16 11:14:57;;;;;;;;;;;24.30;41.50;;;;;;1493634;79;1635;-64
2022/03/16 11:16:59;;;;;;;;;;;24.40;41.50;;;;;;1496129;78;724;-64
2022/03/16 11:19:02;;;;;;;;;;;24.50;41.50;;;;;;1492548;78;1050;-64
2022/03/16 11:21:05;;;;;;;;;;;24.50;41.50;;;;;;1483898;78;719;-64
2022/03/16 11:25:27;;;;;;;;;;;24.50;41.30;;;;;;1492858;79;1617;-63
2022/03/16 11:27:49;;;;;;;;;;;24.50;41.40;;;;;;1511086;78;710;-64
2022/03/16 11:30:07;;;;;;;;;;;24.50;41.50;;;;;;1498576;78;1937;-63
2022/03/16 11:32:09;;;;;;;;;;;24.40;41.50;;;;;;1500753;78;1582;-63
2022/03/16 11:34:11;;;;;;;;;;;24.40;41.60;;;;;;1493847;78;791;-64
2022/03/16 11:36:15;;;;;;;;;;;24.40;41.70;;;;;;1488346;78;753;-65
2022/03/16 11:38:17;;;;;;;;;;;24.40;41.80;;;;;;1488441;79;1859;-64
2022/03/16 11:40:22;;;;;;;;;;;24.40;41.80;;;;;;1493592;78;751;-65
2022/03/16 11:42:25;;;;;;;;;;;24.30;41.80;;;;;;1487232;78;1181;-63
2022/03/16 11:44:28;;;;;;;;;;;24.40;41.90;;;;;;1495642;78;737;-64
2022/03/16 11:46:31;;;;;;;;;;;24.40;41.90;;;;;;1480245;79;681;-63
2022/03/16 11:48:36;;;;;;;;;;;24.40;41.90;;;;;;1495663;78;715;-68
2022/03/16 11:50:37;;;;;;;;;;;24.30;42.00;;;;;;1495290;78;1921;-66
2022/03/16 11:53:00;;;;;;;;;;;24.30;42.00;;;;;;1499007;78;1132;-65
2022/03/16 11:55:00;;;;;;;;;;;24.30;41.90;;;;;;1484119;78;1071;-66
2022/03/16 11:57:02;;;;;;;;;;;24.30;41.90;;;;;;1499136;78;730;-64
2022/03/16 11:59:09;;;;;;;;;;;24.50;41.70;;;;;;1494126;78;724;-66
2022/03/16 12:01:27;;;;;;;;;;;24.70;41.40;;;;;;1496792;78;1702;-65
2022/03/16 12:03:29;;;;;;;;;;;24.70;41.20;;;;;;1499343;78;1148;-69
2022/03/16 12:05:32;;;;;;;;;;;24.70;41.10;;;;;;1468433;79;1274;-66
2022/03/16 12:07:37;;;;;;;;;;;24.80;41.00;;;;;;1498974;78;1725;-65
2022/03/16 12:09:45;;;;;;;;;;;24.70;40.90;;;;;;1490690;78;741;-66
2022/03/16 12:14:16;;;;;;;;;;;24.70;41.00;;;;;;1487618;78;1664;-65
2022/03/16 12:16:21;;;;;;;;;;;24.70;41.10;;;;;;1507106;78;1693;-65
2022/03/16 12:18:25;;;;;;;;;;;24.60;41.10;;;;;;1514201;78;707;-64
2022/03/16 12:20:27;;;;;;;;;;;24.60;41.10;;;;;;1511166;78;818;-67
2022/03/16 12:22:30;;;;;;;;;;;24.50;41.30;;;;;;1510141;77;1141;-66
2022/03/16 12:29:16;;;;;;;;;;;24.50;41.60;;;;;;1501218;78;1647;-66
2022/03/16 12:31:21;;;;;;;;;;;24.40;41.60;;;;;;1511162;78;1913;-67
2022/03/16 12:33:23;;;;;;;;;;;24.50;41.80;;;;;;1512086;77;1088;-67